createdAt,value
2017-12-25T00:00:49.000Z,1012.769
2017-12-25T00:10:49.000Z,1012.673
2017-12-25T00:20:49.000Z,1012.545
2017-12-25T00:30:49.000Z,1012.452
2017-12-25T00:40:49.000Z,1012.354
2017-12-25T00:50:51.000Z,1012.276
2017-12-25T01:00:49.000Z,1012.217
2017-12-25T01:10:49.000Z,1011.989
2017-12-25T01:20:49.000Z,1011.966
2017-12-25T01:30:49.000Z,1011.974
2017-12-25T01:40:49.000Z,1012.006
2017-12-25T01:50:49.000Z,1011.905
2017-12-25T02:00:49.000Z,1011.793
2017-12-25T02:10:49.000Z,1011.788
2017-12-25T02:20:49.000Z,1011.751
2017-12-25T02:30:49.000Z,1011.658
2017-12-25T02:40:50.000Z,1011.632
2017-12-25T02:50:49.000Z,1011.558
2017-12-25T03:00:49.000Z,1011.513
2017-12-25T03:10:49.000Z,1011.478
2017-12-25T03:20:49.000Z,1011.435
2017-12-25T03:30:50.000Z,1011.253
2017-12-25T03:40:50.000Z,1011.195
2017-12-25T03:50:50.000Z,1011.068
2017-12-25T04:00:50.000Z,1011.036
2017-12-25T04:10:50.000Z,1010.918
2017-12-25T04:20:50.000Z,1010.857
2017-12-25T04:30:50.000Z,1010.786
2017-12-25T04:40:50.000Z,1010.737
2017-12-25T04:50:50.000Z,1010.608
2017-12-25T05:00:50.000Z,1010.6
2017-12-25T05:10:50.000Z,1010.533
2017-12-25T05:20:50.000Z,1010.489
2017-12-25T05:30:50.000Z,1010.382
2017-12-25T05:40:50.000Z,1010.335
2017-12-25T05:50:50.000Z,1010.301
2017-12-25T06:00:50.000Z,1010.191
2017-12-25T06:10:50.000Z,1010.165
2017-12-25T06:20:50.000Z,1010.167
2017-12-25T06:30:50.000Z,1010.231
2017-12-25T06:40:50.000Z,1010.182
2017-12-25T06:50:50.000Z,1010.065
2017-12-25T07:00:50.000Z,1010.028
2017-12-25T07:10:50.000Z,1009.913
2017-12-25T07:20:50.000Z,1009.922
2017-12-25T07:30:50.000Z,1009.946
2017-12-25T07:40:50.000Z,1009.873
2017-12-25T07:50:50.000Z,1009.893
2017-12-25T08:00:50.000Z,1009.868
2017-12-25T08:10:50.000Z,1009.8
2017-12-25T08:20:50.000Z,1009.732
2017-12-25T08:30:50.000Z,1009.727
2017-12-25T08:40:50.000Z,1009.659
2017-12-25T08:50:50.000Z,1009.644
2017-12-25T09:00:50.000Z,1009.643
2017-12-25T09:10:50.000Z,1009.725
2017-12-25T09:20:50.000Z,1009.723
2017-12-25T09:30:50.000Z,1009.671
2017-12-25T09:40:50.000Z,1009.816
2017-12-25T09:50:50.000Z,1009.819
2017-12-25T10:00:50.000Z,1009.722
2017-12-25T10:10:50.000Z,1009.591
2017-12-25T10:20:50.000Z,1009.395
2017-12-25T10:30:50.000Z,1009.185
2017-12-25T10:40:50.000Z,1009.086
2017-12-25T10:50:50.000Z,1008.909
2017-12-25T11:00:50.000Z,1008.715
2017-12-25T11:10:50.000Z,1008.514
2017-12-25T11:20:50.000Z,1008.389
2017-12-25T11:30:50.000Z,1008.28
2017-12-25T11:40:50.000Z,1008.154
2017-12-25T11:50:51.000Z,1008.003
2017-12-25T12:00:51.000Z,1007.865
2017-12-25T12:10:51.000Z,1007.693
2017-12-25T12:20:51.000Z,1007.501
2017-12-25T12:30:51.000Z,1007.29
2017-12-25T12:40:51.000Z,1007.084
2017-12-25T12:50:51.000Z,1006.958
2017-12-25T13:00:51.000Z,1006.774
2017-12-25T13:10:51.000Z,1006.62
2017-12-25T13:20:51.000Z,1006.477
2017-12-25T13:30:51.000Z,1006.417
2017-12-25T13:40:51.000Z,1006.305
2017-12-25T13:50:51.000Z,1006.193
2017-12-25T14:00:51.000Z,1006.112
2017-12-25T14:10:51.000Z,1006.05
2017-12-25T14:20:51.000Z,1006.045
2017-12-25T14:30:51.000Z,1005.962
2017-12-25T14:40:51.000Z,1005.932
2017-12-25T14:50:51.000Z,1005.82
2017-12-25T15:00:51.000Z,1005.748
2017-12-25T15:10:51.000Z,1005.682
2017-12-25T15:20:51.000Z,1005.565
2017-12-25T15:30:51.000Z,1005.414
2017-12-25T15:40:51.000Z,1005.356
2017-12-25T15:50:51.000Z,1005.24
2017-12-25T16:00:51.000Z,1005.099
2017-12-25T16:10:51.000Z,1004.989
2017-12-25T16:20:51.000Z,1004.838
2017-12-25T16:30:51.000Z,1004.687
2017-12-25T16:40:51.000Z,1004.557
2017-12-25T16:50:51.000Z,1004.375
2017-12-25T17:00:51.000Z,1004.19
2017-12-25T17:10:51.000Z,1004.123
2017-12-25T17:20:51.000Z,1004.02
2017-12-25T17:30:51.000Z,1003.913
2017-12-25T17:40:51.000Z,1003.798
2017-12-25T17:50:51.000Z,1003.746
2017-12-25T18:00:51.000Z,1003.514
2017-12-25T18:10:51.000Z,1003.192
2017-12-25T18:20:51.000Z,1002.959
2017-12-25T18:30:51.000Z,1002.871
2017-12-25T18:40:51.000Z,1002.81
2017-12-25T18:50:51.000Z,1002.768
2017-12-25T19:00:51.000Z,1002.541
2017-12-25T19:10:51.000Z,1002.444
2017-12-25T19:20:51.000Z,1002.376
2017-12-25T19:30:51.000Z,1002.186
2017-12-25T19:40:51.000Z,1002.071
2017-12-25T19:50:51.000Z,1001.885
2017-12-25T20:00:52.000Z,1001.765
2017-12-25T20:10:52.000Z,1001.551
2017-12-25T20:20:52.000Z,1001.376
2017-12-25T20:30:52.000Z,1001.256
2017-12-25T20:40:53.000Z,1001.13
2017-12-25T20:50:52.000Z,1000.939
2017-12-25T21:00:52.000Z,1000.769
2017-12-25T21:10:52.000Z,1000.663
2017-12-25T21:20:52.000Z,1000.527
2017-12-25T21:30:52.000Z,1000.497
2017-12-25T21:40:52.000Z,1000.386
2017-12-25T21:50:52.000Z,1000.292
2017-12-25T22:00:52.000Z,1000.172
2017-12-25T22:10:52.000Z,999.904
2017-12-25T22:20:52.000Z,999.798
2017-12-25T22:30:52.000Z,999.513
2017-12-25T22:40:52.000Z,999.361
2017-12-25T22:50:52.000Z,999.314
2017-12-25T23:00:52.000Z,999.175
2017-12-25T23:10:52.000Z,999.032
2017-12-25T23:20:52.000Z,998.829
2017-12-25T23:30:52.000Z,998.604
2017-12-25T23:40:52.000Z,998.49
2017-12-25T23:50:52.000Z,998.243
